sensor_id;sensor_type;location;lat;lon;timestamp;temperature;humidity
71039;SHT30;58692;43.212;27.908;2024-03-29T00:02:03;13.42;79.80
71039;SHT30;58692;43.212;27.908;2024-03-29T00:04:28;13.36;79.85
71039;SHT30;58692;43.212;27.908;2024-03-29T00:06:54;13.44;79.56
71039;SHT30;58692;43.212;27.908;2024-03-29T00:09:20;13.21;80.12
71039;SHT30;58692;43.212;27.908;2024-03-29T00:11:45;13.22;80.05
71039;SHT30;58692;43.212;27.908;2024-03-29T00:14:11;13.02;80.46
71039;SHT30;58692;43.212;27.908;2024-03-29T00:16:37;13.12;80.39
71039;SHT30;58692;43.212;27.908;2024-03-29T00:19:02;13.11;80.10
71039;SHT30;58692;43.212;27.908;2024-03-29T00:21:28;13.19;79.96
71039;SHT30;58692;43.212;27.908;2024-03-29T00:23:53;13.26;79.82
71039;SHT30;58692;43.212;27.908;2024-03-29T00:26:19;13.16;79.93
71039;SHT30;58692;43.212;27.908;2024-03-29T00:28:44;13.04;80.06
71039;SHT30;58692;43.212;27.908;2024-03-29T00:31:10;12.88;80.55
71039;SHT30;58692;43.212;27.908;2024-03-29T00:33:36;12.64;81.01
71039;SHT30;58692;43.212;27.908;2024-03-29T00:36:02;12.53;80.98
71039;SHT30;58692;43.212;27.908;2024-03-29T00:38:27;12.50;80.73
71039;SHT30;58692;43.212;27.908;2024-03-29T00:40:53;12.46;80.90
71039;SHT30;58692;43.212;27.908;2024-03-29T00:43:19;12.37;81.32
71039;SHT30;58692;43.212;27.908;2024-03-29T00:45:44;12.36;81.44
71039;SHT30;58692;43.212;27.908;2024-03-29T00:48:10;12.29;81.75
71039;SHT30;58692;43.212;27.908;2024-03-29T00:50:35;12.37;81.34
71039;SHT30;58692;43.212;27.908;2024-03-29T00:53:04;12.39;81.18
71039;SHT30;58692;43.212;27.908;2024-03-29T00:55:30;12.41;81.01
71039;SHT30;58692;43.212;27.908;2024-03-29T00:57:55;12.43;80.77
71039;SHT30;58692;43.212;27.908;2024-03-29T01:00:21;12.50;80.65
71039;SHT30;58692;43.212;27.908;2024-03-29T01:02:47;12.54;80.45
71039;SHT30;58692;43.212;27.908;2024-03-29T01:05:12;12.57;80.31
71039;SHT30;58692;43.212;27.908;2024-03-29T01:07:41;12.56;80.02
71039;SHT30;58692;43.212;27.908;2024-03-29T01:10:07;12.57;79.92
71039;SHT30;58692;43.212;27.908;2024-03-29T01:12:34;12.61;79.84
71039;SHT30;58692;43.212;27.908;2024-03-29T01:15:00;12.67;79.71
71039;SHT30;58692;43.212;27.908;2024-03-29T01:17:26;12.68;79.71
71039;SHT30;58692;43.212;27.908;2024-03-29T01:19:51;12.70;79.59
71039;SHT30;58692;43.212;27.908;2024-03-29T01:22:17;12.54;79.73
71039;SHT30;58692;43.212;27.908;2024-03-29T01:24:43;12.54;79.82
71039;SHT30;58692;43.212;27.908;2024-03-29T01:27:08;12.61;79.75
71039;SHT30;58692;43.212;27.908;2024-03-29T01:29:34;12.57;79.75
71039;SHT30;58692;43.212;27.908;2024-03-29T01:31:59;12.56;79.86
71039;SHT30;58692;43.212;27.908;2024-03-29T01:34:25;12.61;79.68
71039;SHT30;58692;43.212;27.908;2024-03-29T01:36:51;12.56;79.74
71039;SHT30;58692;43.212;27.908;2024-03-29T01:39:16;12.57;79.79
71039;SHT30;58692;43.212;27.908;2024-03-29T01:41:45;12.63;79.59
71039;SHT30;58692;43.212;27.908;2024-03-29T01:44:10;12.60;79.63
71039;SHT30;58692;43.212;27.908;2024-03-29T01:46:37;12.50;79.69
71039;SHT30;58692;43.212;27.908;2024-03-29T01:49:04;12.44;79.88
71039;SHT30;58692;43.212;27.908;2024-03-29T01:51:31;12.33;80.25
71039;SHT30;58692;43.212;27.908;2024-03-29T01:53:57;12.20;80.75
71039;SHT30;58692;43.212;27.908;2024-03-29T01:56:24;12.22;80.74
71039;SHT30;58692;43.212;27.908;2024-03-29T01:58:51;12.10;81.15
71039;SHT30;58692;43.212;27.908;2024-03-29T02:01:19;12.13;81.13
71039;SHT30;58692;43.212;27.908;2024-03-29T02:03:45;12.18;81.00
71039;SHT30;58692;43.212;27.908;2024-03-29T02:06:11;12.22;80.94
71039;SHT30;58692;43.212;27.908;2024-03-29T02:08:38;12.28;80.94
71039;SHT30;58692;43.212;27.908;2024-03-29T02:11:04;12.29;80.94
71039;SHT30;58692;43.212;27.908;2024-03-29T02:13:30;12.08;81.58
71039;SHT30;58692;43.212;27.908;2024-03-29T02:15:57;12.09;81.83
71039;SHT30;58692;43.212;27.908;2024-03-29T02:18:23;12.15;81.58
71039;SHT30;58692;43.212;27.908;2024-03-29T02:20:49;12.15;81.46
71039;SHT30;58692;43.212;27.908;2024-03-29T02:23:19;12.18;81.37
71039;SHT30;58692;43.212;27.908;2024-03-29T02:25:45;12.26;81.23
71039;SHT30;58692;43.212;27.908;2024-03-29T02:28:12;12.19;81.59
71039;SHT30;58692;43.212;27.908;2024-03-29T02:30:38;12.05;82.07
71039;SHT30;58692;43.212;27.908;2024-03-29T02:33:03;12.00;82.35
71039;SHT30;58692;43.212;27.908;2024-03-29T02:35:29;12.10;82.14
71039;SHT30;58692;43.212;27.908;2024-03-29T02:37:56;12.20;81.80
71039;SHT30;58692;43.212;27.908;2024-03-29T02:40:21;12.19;81.61
71039;SHT30;58692;43.212;27.908;2024-03-29T02:42:48;12.16;81.56
71039;SHT30;58692;43.212;27.908;2024-03-29T02:45:15;12.15;81.73
71039;SHT30;58692;43.212;27.908;2024-03-29T02:47:40;11.95;82.47
71039;SHT30;58692;43.212;27.908;2024-03-29T02:50:08;12.00;82.54
71039;SHT30;58692;43.212;27.908;2024-03-29T02:52:34;11.92;82.56
71039;SHT30;58692;43.212;27.908;2024-03-29T02:55:00;12.02;82.46
71039;SHT30;58692;43.212;27.908;2024-03-29T02:57:25;11.99;82.59
71039;SHT30;58692;43.212;27.908;2024-03-29T02:59:51;11.92;82.68
71039;SHT30;58692;43.212;27.908;2024-03-29T03:02:17;11.92;82.80
71039;SHT30;58692;43.212;27.908;2024-03-29T03:04:42;11.78;82.99
71039;SHT30;58692;43.212;27.908;2024-03-29T03:07:08;11.81;82.87
71039;SHT30;58692;43.212;27.908;2024-03-29T03:09:49;11.85;82.86
71039;SHT30;58692;43.212;27.908;2024-03-29T03:12:30;11.85;83.02
71039;SHT30;58692;43.212;27.908;2024-03-29T03:14:57;11.92;82.97
71039;SHT30;58692;43.212;27.908;2024-03-29T03:17:23;11.96;82.74
71039;SHT30;58692;43.212;27.908;2024-03-29T03:19:51;12.00;82.72
71039;SHT30;58692;43.212;27.908;2024-03-29T03:22:16;11.99;82.78
71039;SHT30;58692;43.212;27.908;2024-03-29T03:24:42;11.95;83.20
71039;SHT30;58692;43.212;27.908;2024-03-29T03:27:07;12.06;83.00
71039;SHT30;58692;43.212;27.908;2024-03-29T03:29:33;12.06;82.89
71039;SHT30;58692;43.212;27.908;2024-03-29T03:31:59;12.00;83.29
71039;SHT30;58692;43.212;27.908;2024-03-29T03:34:24;12.06;83.06
71039;SHT30;58692;43.212;27.908;2024-03-29T03:36:50;11.99;83.23
71039;SHT30;58692;43.212;27.908;2024-03-29T03:39:16;12.05;83.25
71039;SHT30;58692;43.212;27.908;2024-03-29T03:41:41;12.02;83.32
71039;SHT30;58692;43.212;27.908;2024-03-29T03:44:07;11.99;83.32
71039;SHT30;58692;43.212;27.908;2024-03-29T03:46:32;11.96;83.72
71039;SHT30;58692;43.212;27.908;2024-03-29T03:48:58;12.06;83.85
71039;SHT30;58692;43.212;27.908;2024-03-29T03:51:23;12.08;83.94
71039;SHT30;58692;43.212;27.908;2024-03-29T03:53:49;12.12;84.43
71039;SHT30;58692;43.212;27.908;2024-03-29T03:56:14;12.08;84.87
71039;SHT30;58692;43.212;27.908;2024-03-29T03:58:40;12.15;84.70
71039;SHT30;58692;43.212;27.908;2024-03-29T04:01:06;12.15;84.51
71039;SHT30;58692;43.212;27.908;2024-03-29T04:03:31;12.12;84.63
71039;SHT30;58692;43.212;27.908;2024-03-29T04:05:57;12.13;84.48
71039;SHT30;58692;43.212;27.908;2024-03-29T04:08:23;12.10;84.36
71039;SHT30;58692;43.212;27.908;2024-03-29T04:10:48;12.09;84.07
71039;SHT30;58692;43.212;27.908;2024-03-29T04:13:14;12.02;83.95
71039;SHT30;58692;43.212;27.908;2024-03-29T04:15:39;11.95;84.07
71039;SHT30;58692;43.212;27.908;2024-03-29T04:18:06;11.98;83.86
71039;SHT30;58692;43.212;27.908;2024-03-29T04:20:32;11.78;84.11
71039;SHT30;58692;43.212;27.908;2024-03-29T04:22:57;11.78;84.06
71039;SHT30;58692;43.212;27.908;2024-03-29T04:25:23;11.78;84.09
71039;SHT30;58692;43.212;27.908;2024-03-29T04:27:49;11.89;83.72
71039;SHT30;58692;43.212;27.908;2024-03-29T04:30:14;12.03;83.36
71039;SHT30;58692;43.212;27.908;2024-03-29T04:32:40;12.10;83.01
71039;SHT30;58692;43.212;27.908;2024-03-29T04:35:06;12.03;83.07
71039;SHT30;58692;43.212;27.908;2024-03-29T04:37:31;12.29;82.61
71039;SHT30;58692;43.212;27.908;2024-03-29T04:39:57;12.39;81.97
71039;SHT30;58692;43.212;27.908;2024-03-29T04:42:22;12.41;81.93
71039;SHT30;58692;43.212;27.908;2024-03-29T04:44:48;12.57;81.17
71039;SHT30;58692;43.212;27.908;2024-03-29T04:47:14;12.70;80.53
71039;SHT30;58692;43.212;27.908;2024-03-29T04:49:39;12.83;79.69
71039;SHT30;58692;43.212;27.908;2024-03-29T04:52:05;12.94;79.32
71039;SHT30;58692;43.212;27.908;2024-03-29T04:54:32;13.04;79.06
71039;SHT30;58692;43.212;27.908;2024-03-29T04:56:59;13.31;78.41
71039;SHT30;58692;43.212;27.908;2024-03-29T04:59:27;13.29;78.38
71039;SHT30;58692;43.212;27.908;2024-03-29T05:01:55;13.45;78.30
71039;SHT30;58692;43.212;27.908;2024-03-29T05:04:22;13.62;77.87
71039;SHT30;58692;43.212;27.908;2024-03-29T05:06:55;13.90;77.06
71039;SHT30;58692;43.212;27.908;2024-03-29T05:09:21;14.03;76.39
71039;SHT30;58692;43.212;27.908;2024-03-29T05:11:47;14.18;76.08
71039;SHT30;58692;43.212;27.908;2024-03-29T05:14:15;14.28;75.99
71039;SHT30;58692;43.212;27.908;2024-03-29T05:16:44;14.47;75.66
71039;SHT30;58692;43.212;27.908;2024-03-29T05:19:10;14.57;75.35
71039;SHT30;58692;43.212;27.908;2024-03-29T05:21:35;14.93;74.69
71039;SHT30;58692;43.212;27.908;2024-03-29T05:24:01;15.09;74.40
71039;SHT30;58692;43.212;27.908;2024-03-29T05:26:26;15.31;74.20
71039;SHT30;58692;43.212;27.908;2024-03-29T05:28:52;15.52;73.31
71039;SHT30;58692;43.212;27.908;2024-03-29T05:31:21;15.52;73.84
71039;SHT30;58692;43.212;27.908;2024-03-29T05:33:46;15.73;73.36
71039;SHT30;58692;43.212;27.908;2024-03-29T05:36:12;15.98;72.45
71039;SHT30;58692;43.212;27.908;2024-03-29T05:38:39;16.31;71.95
71039;SHT30;58692;43.212;27.908;2024-03-29T05:41:05;16.64;71.06
71039;SHT30;58692;43.212;27.908;2024-03-29T05:43:31;16.49;71.44
71039;SHT30;58692;43.212;27.908;2024-03-29T05:45:57;16.92;70.31
71039;SHT30;58692;43.212;27.908;2024-03-29T05:48:23;17.00;69.67
71039;SHT30;58692;43.212;27.908;2024-03-29T05:50:49;16.98;69.64
71039;SHT30;58692;43.212;27.908;2024-03-29T05:53:14;17.37;68.90
71039;SHT30;58692;43.212;27.908;2024-03-29T05:55:40;17.70;68.09
71039;SHT30;58692;43.212;27.908;2024-03-29T05:58:05;18.00;67.18
71039;SHT30;58692;43.212;27.908;2024-03-29T06:00:32;18.16;66.49
71039;SHT30;58692;43.212;27.908;2024-03-29T06:03:00;18.51;65.86
71039;SHT30;58692;43.212;27.908;2024-03-29T06:05:28;18.56;65.95
71039;SHT30;58692;43.212;27.908;2024-03-29T06:07:54;18.76;65.28
71039;SHT30;58692;43.212;27.908;2024-03-29T06:10:20;19.06;64.33
71039;SHT30;58692;43.212;27.908;2024-03-29T06:12:45;19.64;62.78
71039;SHT30;58692;43.212;27.908;2024-03-29T06:15:11;19.77;62.19
71039;SHT30;58692;43.212;27.908;2024-03-29T06:17:52;20.05;61.77
71039;SHT30;58692;43.212;27.908;2024-03-29T06:20:18;20.00;61.51
71039;SHT30;58692;43.212;27.908;2024-03-29T06:22:43;20.02;61.14
71039;SHT30;58692;43.212;27.908;2024-03-29T06:25:09;20.60;59.88
71039;SHT30;58692;43.212;27.908;2024-03-29T06:27:36;20.94;59.50
71039;SHT30;58692;43.212;27.908;2024-03-29T06:30:03;20.85;59.20
71039;SHT30;58692;43.212;27.908;2024-03-29T06:32:30;20.91;58.48
71039;SHT30;58692;43.212;27.908;2024-03-29T06:34:56;21.01;58.11
71039;SHT30;58692;43.212;27.908;2024-03-29T06:37:22;21.31;57.42
71039;SHT30;58692;43.212;27.908;2024-03-29T06:39:48;21.52;57.12
71039;SHT30;58692;43.212;27.908;2024-03-29T06:42:14;21.78;56.48
71039;SHT30;58692;43.212;27.908;2024-03-29T06:44:40;21.69;56.64
71039;SHT30;58692;43.212;27.908;2024-03-29T06:47:07;21.90;56.66
71039;SHT30;58692;43.212;27.908;2024-03-29T06:49:33;21.93;56.48
71039;SHT30;58692;43.212;27.908;2024-03-29T06:51:58;22.70;55.20
71039;SHT30;58692;43.212;27.908;2024-03-29T06:54:27;22.67;55.45
71039;SHT30;58692;43.212;27.908;2024-03-29T06:56:57;22.88;54.88
71039;SHT30;58692;43.212;27.908;2024-03-29T06:59:23;22.99;54.15
71039;SHT30;58692;43.212;27.908;2024-03-29T07:01:49;22.77;53.86
71039;SHT30;58692;43.212;27.908;2024-03-29T07:04:19;23.62;52.33
71039;SHT30;58692;43.212;27.908;2024-03-29T07:06:45;24.03;51.10
71039;SHT30;58692;43.212;27.908;2024-03-29T07:09:13;24.28;49.91
71039;SHT30;58692;43.212;27.908;2024-03-29T07:11:40;24.61;48.35
71039;SHT30;58692;43.212;27.908;2024-03-29T07:14:06;25.22;47.00
71039;SHT30;58692;43.212;27.908;2024-03-29T07:16:32;24.99;44.69
71039;SHT30;58692;43.212;27.908;2024-03-29T07:18:58;25.40;43.85
71039;SHT30;58692;43.212;27.908;2024-03-29T07:21:24;25.39;43.27
71039;SHT30;58692;43.212;27.908;2024-03-29T07:23:50;25.83;42.78
71039;SHT30;58692;43.212;27.908;2024-03-29T07:26:16;26.40;42.14
71039;SHT30;58692;43.212;27.908;2024-03-29T07:28:42;25.97;41.18
71039;SHT30;58692;43.212;27.908;2024-03-29T07:31:08;26.41;40.97
71039;SHT30;58692;43.212;27.908;2024-03-29T07:33:34;27.14;39.59
71039;SHT30;58692;43.212;27.908;2024-03-29T07:36:00;27.36;38.26
71039;SHT30;58692;43.212;27.908;2024-03-29T07:38:29;27.27;37.79
71039;SHT30;58692;43.212;27.908;2024-03-29T07:40:57;27.73;36.95
71039;SHT30;58692;43.212;27.908;2024-03-29T07:43:23;27.90;36.86
71039;SHT30;58692;43.212;27.908;2024-03-29T07:45:48;27.83;36.82
71039;SHT30;58692;43.212;27.908;2024-03-29T07:48:17;27.68;35.83
71039;SHT30;58692;43.212;27.908;2024-03-29T07:50:46;28.17;35.68
71039;SHT30;58692;43.212;27.908;2024-03-29T07:53:15;28.49;35.19
71039;SHT30;58692;43.212;27.908;2024-03-29T07:55:43;28.01;35.32
71039;SHT30;58692;43.212;27.908;2024-03-29T07:58:09;28.59;35.14
71039;SHT30;58692;43.212;27.908;2024-03-29T08:00:40;28.51;34.98
71039;SHT30;58692;43.212;27.908;2024-03-29T08:03:07;28.76;35.06
71039;SHT30;58692;43.212;27.908;2024-03-29T08:05:32;29.04;34.97
71039;SHT30;58692;43.212;27.908;2024-03-29T08:08:05;28.53;35.41
71039;SHT30;58692;43.212;27.908;2024-03-29T08:10:38;29.09;34.88
71039;SHT30;58692;43.212;27.908;2024-03-29T08:13:04;28.79;34.49
71039;SHT30;58692;43.212;27.908;2024-03-29T08:15:31;28.80;34.79
71039;SHT30;58692;43.212;27.908;2024-03-29T08:17:57;28.82;34.32
71039;SHT30;58692;43.212;27.908;2024-03-29T08:20:23;29.19;33.97
71039;SHT30;58692;43.212;27.908;2024-03-29T08:22:56;29.80;33.52
71039;SHT30;58692;43.212;27.908;2024-03-29T08:25:23;29.85;33.53
71039;SHT30;58692;43.212;27.908;2024-03-29T08:27:52;29.29;33.86
71039;SHT30;58692;43.212;27.908;2024-03-29T08:30:25;29.62;34.04
71039;SHT30;58692;43.212;27.908;2024-03-29T08:32:51;29.67;33.89
71039;SHT30;58692;43.212;27.908;2024-03-29T08:35:18;29.72;33.62
71039;SHT30;58692;43.212;27.908;2024-03-29T08:37:45;29.70;33.72
71039;SHT30;58692;43.212;27.908;2024-03-29T08:40:11;30.43;33.06
71039;SHT30;58692;43.212;27.908;2024-03-29T08:42:37;30.15;33.02
71039;SHT30;58692;43.212;27.908;2024-03-29T08:45:04;30.01;33.02
71039;SHT30;58692;43.212;27.908;2024-03-29T08:47:35;29.64;33.88
71039;SHT30;58692;43.212;27.908;2024-03-29T08:50:01;30.02;33.13
71039;SHT30;58692;43.212;27.908;2024-03-29T08:52:29;30.60;32.72
71039;SHT30;58692;43.212;27.908;2024-03-29T08:55:05;30.59;32.81
71039;SHT30;58692;43.212;27.908;2024-03-29T08:57:40;30.33;32.93
71039;SHT30;58692;43.212;27.908;2024-03-29T09:00:08;30.22;33.04
71039;SHT30;58692;43.212;27.908;2024-03-29T09:02:43;30.35;32.71
71039;SHT30;58692;43.212;27.908;2024-03-29T09:05:11;29.93;34.45
71039;SHT30;58692;43.212;27.908;2024-03-29T09:07:37;30.29;33.82
71039;SHT30;58692;43.212;27.908;2024-03-29T09:10:04;30.42;34.73
71039;SHT30;58692;43.212;27.908;2024-03-29T09:12:38;30.60;34.99
71039;SHT30;58692;43.212;27.908;2024-03-29T09:15:05;30.55;34.69
71039;SHT30;58692;43.212;27.908;2024-03-29T09:17:40;30.57;33.33
71039;SHT30;58692;43.212;27.908;2024-03-29T09:20:06;30.04;33.43
71039;SHT30;58692;43.212;27.908;2024-03-29T09:22:32;30.64;33.25
71039;SHT30;58692;43.212;27.908;2024-03-29T09:24:58;30.29;33.52
71039;SHT30;58692;43.212;27.908;2024-03-29T09:27:32;30.37;33.30
71039;SHT30;58692;43.212;27.908;2024-03-29T09:30:00;30.98;32.57
71039;SHT30;58692;43.212;27.908;2024-03-29T09:32:26;31.07;32.34
71039;SHT30;58692;43.212;27.908;2024-03-29T09:34:52;30.67;32.68
71039;SHT30;58692;43.212;27.908;2024-03-29T09:37:18;30.76;33.02
71039;SHT30;58692;43.212;27.908;2024-03-29T09:39:45;31.18;32.78
71039;SHT30;58692;43.212;27.908;2024-03-29T09:42:15;31.18;32.58
71039;SHT30;58692;43.212;27.908;2024-03-29T09:44:43;31.27;31.76
71039;SHT30;58692;43.212;27.908;2024-03-29T09:47:14;30.36;32.83
71039;SHT30;58692;43.212;27.908;2024-03-29T09:49:41;30.77;32.34
71039;SHT30;58692;43.212;27.908;2024-03-29T09:52:09;31.00;31.97
71039;SHT30;58692;43.212;27.908;2024-03-29T09:54:35;31.01;31.60
71039;SHT30;58692;43.212;27.908;2024-03-29T09:57:01;30.88;31.81
71039;SHT30;58692;43.212;27.908;2024-03-29T09:59:27;31.24;31.65
71039;SHT30;58692;43.212;27.908;2024-03-29T10:01:55;31.67;31.34
71039;SHT30;58692;43.212;27.908;2024-03-29T10:04:23;31.61;31.18
71039;SHT30;58692;43.212;27.908;2024-03-29T10:06:49;31.93;31.57
71039;SHT30;58692;43.212;27.908;2024-03-29T10:09:19;32.19;31.71
71039;SHT30;58692;43.212;27.908;2024-03-29T10:11:46;31.85;32.03
71039;SHT30;58692;43.212;27.908;2024-03-29T10:14:12;31.79;32.14
71039;SHT30;58692;43.212;27.908;2024-03-29T10:16:39;31.67;31.39
71039;SHT30;58692;43.212;27.908;2024-03-29T10:19:07;32.22;30.70
71039;SHT30;58692;43.212;27.908;2024-03-29T10:21:33;32.18;30.88
71039;SHT30;58692;43.212;27.908;2024-03-29T10:24:09;32.20;30.72
71039;SHT30;58692;43.212;27.908;2024-03-29T10:26:37;33.08;30.26
71039;SHT30;58692;43.212;27.908;2024-03-29T10:29:03;32.06;30.75
71039;SHT30;58692;43.212;27.908;2024-03-29T10:31:34;32.30;31.28
71039;SHT30;58692;43.212;27.908;2024-03-29T10:34:06;31.14;32.62
71039;SHT30;58692;43.212;27.908;2024-03-29T10:36:35;31.45;32.43
71039;SHT30;58692;43.212;27.908;2024-03-29T10:39:09;31.45;31.65
71039;SHT30;58692;43.212;27.908;2024-03-29T10:41:40;32.01;31.28
71039;SHT30;58692;43.212;27.908;2024-03-29T10:44:09;31.64;31.93
71039;SHT30;58692;43.212;27.908;2024-03-29T10:46:37;31.95;31.76
71039;SHT30;58692;43.212;27.908;2024-03-29T10:49:09;31.03;32.25
71039;SHT30;58692;43.212;27.908;2024-03-29T10:51:38;31.30;32.07
71039;SHT30;58692;43.212;27.908;2024-03-29T10:54:11;31.79;31.03
71039;SHT30;58692;43.212;27.908;2024-03-29T10:56:38;31.41;30.20
71039;SHT30;58692;43.212;27.908;2024-03-29T10:59:18;31.89;30.22
71039;SHT30;58692;43.212;27.908;2024-03-29T11:04:21;32.49;29.89
71039;SHT30;58692;43.212;27.908;2024-03-29T11:06:50;31.65;30.33
71039;SHT30;58692;43.212;27.908;2024-03-29T11:09:19;32.04;30.07
71039;SHT30;58692;43.212;27.908;2024-03-29T11:11:50;32.30;30.01
71039;SHT30;58692;43.212;27.908;2024-03-29T11:14:20;31.99;30.26
71039;SHT30;58692;43.212;27.908;2024-03-29T11:16:48;32.01;29.96
71039;SHT30;58692;43.212;27.908;2024-03-29T11:19:16;31.84;30.32
71039;SHT30;58692;43.212;27.908;2024-03-29T11:21:45;32.46;29.87
71039;SHT30;58692;43.212;27.908;2024-03-29T11:24:15;32.05;30.08
71039;SHT30;58692;43.212;27.908;2024-03-29T11:26:42;32.23;30.34
71039;SHT30;58692;43.212;27.908;2024-03-29T11:29:19;32.50;30.09
71039;SHT30;58692;43.212;27.908;2024-03-29T11:31:56;32.50;29.98
71039;SHT30;58692;43.212;27.908;2024-03-29T11:34:22;32.08;30.36
71039;SHT30;58692;43.212;27.908;2024-03-29T11:36:48;32.25;30.36
71039;SHT30;58692;43.212;27.908;2024-03-29T11:39:24;32.20;30.61
71039;SHT30;58692;43.212;27.908;2024-03-29T11:41:50;32.39;30.29
71039;SHT30;58692;43.212;27.908;2024-03-29T11:44:16;32.74;30.02
71039;SHT30;58692;43.212;27.908;2024-03-29T11:46:43;33.03;29.42
71039;SHT30;58692;43.212;27.908;2024-03-29T11:49:09;32.67;30.19
71039;SHT30;58692;43.212;27.908;2024-03-29T11:51:36;32.10;30.35
71039;SHT30;58692;43.212;27.908;2024-03-29T11:54:03;31.93;30.40
71039;SHT30;58692;43.212;27.908;2024-03-29T11:56:32;32.22;30.33
71039;SHT30;58692;43.212;27.908;2024-03-29T11:58:58;32.02;30.01
71039;SHT30;58692;43.212;27.908;2024-03-29T12:01:26;31.54;30.65
71039;SHT30;58692;43.212;27.908;2024-03-29T12:03:54;31.75;30.64
71039;SHT30;58692;43.212;27.908;2024-03-29T12:06:21;31.82;30.75
71039;SHT30;58692;43.212;27.908;2024-03-29T12:08:47;31.71;30.37
71039;SHT30;58692;43.212;27.908;2024-03-29T12:11:18;31.58;30.40
71039;SHT30;58692;43.212;27.908;2024-03-29T12:13:44;31.28;30.81
71039;SHT30;58692;43.212;27.908;2024-03-29T12:16:12;31.52;30.71
71039;SHT30;58692;43.212;27.908;2024-03-29T12:18:47;31.49;30.68
71039;SHT30;58692;43.212;27.908;2024-03-29T12:21:16;31.13;30.70
71039;SHT30;58692;43.212;27.908;2024-03-29T12:23:55;31.62;30.53
71039;SHT30;58692;43.212;27.908;2024-03-29T12:26:20;31.64;30.27
71039;SHT30;58692;43.212;27.908;2024-03-29T12:28:48;31.64;30.53
71039;SHT30;58692;43.212;27.908;2024-03-29T12:31:20;31.49;30.63
71039;SHT30;58692;43.212;27.908;2024-03-29T12:33:52;31.49;30.60
71039;SHT30;58692;43.212;27.908;2024-03-29T12:36:24;31.11;30.74
71039;SHT30;58692;43.212;27.908;2024-03-29T12:38:54;30.76;31.87
71039;SHT30;58692;43.212;27.908;2024-03-29T12:41:31;30.31;31.53
71039;SHT30;58692;43.212;27.908;2024-03-29T12:44:20;30.18;31.63
71039;SHT30;58692;43.212;27.908;2024-03-29T12:46:46;29.58;31.94
71039;SHT30;58692;43.212;27.908;2024-03-29T12:49:12;29.41;32.01
71039;SHT30;58692;43.212;27.908;2024-03-29T12:51:40;29.11;32.62
71039;SHT30;58692;43.212;27.908;2024-03-29T12:54:06;28.79;32.83
71039;SHT30;58692;43.212;27.908;2024-03-29T12:56:32;28.19;33.20
71039;SHT30;58692;43.212;27.908;2024-03-29T12:58:59;28.38;32.96
71039;SHT30;58692;43.212;27.908;2024-03-29T13:01:32;28.11;33.67
71039;SHT30;58692;43.212;27.908;2024-03-29T13:04:17;27.95;33.53
71039;SHT30;58692;43.212;27.908;2024-03-29T13:07:08;27.68;34.09
71039;SHT30;58692;43.212;27.908;2024-03-29T13:10:04;27.87;34.92
71039;SHT30;58692;43.212;27.908;2024-03-29T13:13:18;27.98;35.11
71039;SHT30;58692;43.212;27.908;2024-03-29T13:19:12;27.39;35.16
71039;SHT30;58692;43.212;27.908;2024-03-29T13:21:48;27.57;35.03
71039;SHT30;58692;43.212;27.908;2024-03-29T13:24:27;27.44;35.11
71039;SHT30;58692;43.212;27.908;2024-03-29T13:26:55;27.44;34.87
71039;SHT30;58692;43.212;27.908;2024-03-29T13:29:25;27.42;34.79
71039;SHT30;58692;43.212;27.908;2024-03-29T13:31:51;27.34;34.68
71039;SHT30;58692;43.212;27.908;2024-03-29T13:35:05;27.23;34.86
71039;SHT30;58692;43.212;27.908;2024-03-29T13:38:00;27.14;35.62
71039;SHT30;58692;43.212;27.908;2024-03-29T13:40:38;27.17;35.82
71039;SHT30;58692;43.212;27.908;2024-03-29T13:43:14;27.23;35.88
71039;SHT30;58692;43.212;27.908;2024-03-29T13:45:40;27.22;35.80
71039;SHT30;58692;43.212;27.908;2024-03-29T13:48:10;27.26;36.01
71039;SHT30;58692;43.212;27.908;2024-03-29T13:50:35;27.22;36.08
71039;SHT30;58692;43.212;27.908;2024-03-29T13:53:04;27.14;36.07
71039;SHT30;58692;43.212;27.908;2024-03-29T13:55:31;27.02;36.16
71039;SHT30;58692;43.212;27.908;2024-03-29T13:57:56;27.04;36.36
71039;SHT30;58692;43.212;27.908;2024-03-29T14:00:22;27.03;35.64
71039;SHT30;58692;43.212;27.908;2024-03-29T14:02:54;26.88;35.85
71039;SHT30;58692;43.212;27.908;2024-03-29T14:05:21;26.79;35.92
71039;SHT30;58692;43.212;27.908;2024-03-29T14:08:12;26.76;36.30
71039;SHT30;58692;43.212;27.908;2024-03-29T14:10:41;26.83;35.79
71039;SHT30;58692;43.212;27.908;2024-03-29T14:13:09;26.92;35.88
71039;SHT30;58692;43.212;27.908;2024-03-29T14:19:36;26.72;35.79
71039;SHT30;58692;43.212;27.908;2024-03-29T14:22:16;26.72;35.74
71039;SHT30;58692;43.212;27.908;2024-03-29T14:25:02;26.76;35.56
71039;SHT30;58692;43.212;27.908;2024-03-29T14:27:39;26.82;35.94
71039;SHT30;58692;43.212;27.908;2024-03-29T14:30:15;26.79;35.82
71039;SHT30;58692;43.212;27.908;2024-03-29T14:32:46;26.69;35.88
71039;SHT30;58692;43.212;27.908;2024-03-29T14:35:13;26.71;35.96
71039;SHT30;58692;43.212;27.908;2024-03-29T14:37:51;26.61;35.82
71039;SHT30;58692;43.212;27.908;2024-03-29T14:40:27;26.58;35.90
71039;SHT30;58692;43.212;27.908;2024-03-29T14:42:53;26.63;35.82
71039;SHT30;58692;43.212;27.908;2024-03-29T14:45:20;26.51;35.86
71039;SHT30;58692;43.212;27.908;2024-03-29T14:47:59;26.44;36.07
71039;SHT30;58692;43.212;27.908;2024-03-29T14:50:41;26.44;36.10
71039;SHT30;58692;43.212;27.908;2024-03-29T14:53:07;26.51;36.07
71039;SHT30;58692;43.212;27.908;2024-03-29T14:55:32;26.40;36.23
71039;SHT30;58692;43.212;27.908;2024-03-29T14:57:58;26.49;35.94
71039;SHT30;58692;43.212;27.908;2024-03-29T15:00:24;26.48;36.17
71039;SHT30;58692;43.212;27.908;2024-03-29T15:02:50;26.47;36.30
71039;SHT30;58692;43.212;27.908;2024-03-29T15:05:17;26.51;36.35
71039;SHT30;58692;43.212;27.908;2024-03-29T15:07:43;26.41;36.24
71039;SHT30;58692;43.212;27.908;2024-03-29T15:10:09;26.31;36.22
71039;SHT30;58692;43.212;27.908;2024-03-29T15:12:37;26.41;36.14
71039;SHT30;58692;43.212;27.908;2024-03-29T15:15:05;26.32;36.08
71039;SHT30;58692;43.212;27.908;2024-03-29T15:17:31;26.22;36.37
71039;SHT30;58692;43.212;27.908;2024-03-29T15:19:58;26.31;36.35
71039;SHT30;58692;43.212;27.908;2024-03-29T15:22:26;26.21;36.15
71039;SHT30;58692;43.212;27.908;2024-03-29T15:24:53;26.17;36.10
71039;SHT30;58692;43.212;27.908;2024-03-29T15:27:19;26.17;36.12
71039;SHT30;58692;43.212;27.908;2024-03-29T15:30:00;26.07;36.44
71039;SHT30;58692;43.212;27.908;2024-03-29T15:32:25;26.11;36.43